createdAt,value
2019-03-23T00:02:00.730Z,19.68
2019-03-23T00:04:32.330Z,19.65
2019-03-23T00:07:04.507Z,19.64
2019-03-23T00:09:38.732Z,19.62
2019-03-23T00:12:11.168Z,19.56
2019-03-23T00:14:43.845Z,19.58
2019-03-23T00:17:15.123Z,19.56
2019-03-23T00:19:47.194Z,19.50
2019-03-23T00:22:20.934Z,19.46
2019-03-23T00:24:53.978Z,19.43
2019-03-23T00:27:25.619Z,19.38
2019-03-23T00:29:56.709Z,19.33
2019-03-23T00:32:28.141Z,19.38
2019-03-23T00:35:00.521Z,19.37
2019-03-23T00:37:32.821Z,19.29
2019-03-23T00:40:06.855Z,19.29
2019-03-23T00:42:38.454Z,19.29
2019-03-23T00:45:11.314Z,19.15
2019-03-23T00:47:42.052Z,19.28
2019-03-23T00:50:13.953Z,19.19
2019-03-23T00:52:45.411Z,19.18
2019-03-23T00:55:22.053Z,19.14
2019-03-23T00:57:54.030Z,19.20
2019-03-23T01:00:27.035Z,19.26
2019-03-23T01:03:00.329Z,19.25
2019-03-23T01:05:32.662Z,19.26
2019-03-23T01:08:03.828Z,19.27
2019-03-23T01:10:35.875Z,19.06
2019-03-23T01:13:07.355Z,19.19
2019-03-23T01:15:40.104Z,19.12
2019-03-23T01:18:11.220Z,19.12
2019-03-23T01:20:49.574Z,19.14
2019-03-23T01:23:17.236Z,19.15
2019-03-23T01:25:50.116Z,19.03
2019-03-23T01:28:21.304Z,18.89
2019-03-23T01:30:52.692Z,18.90
2019-03-23T01:33:24.152Z,18.63
2019-03-23T01:35:55.780Z,18.67
2019-03-23T01:38:26.761Z,18.79
2019-03-23T01:40:59.168Z,18.77
2019-03-23T01:43:31.778Z,18.69
2019-03-23T01:46:03.316Z,18.69
2019-03-23T01:48:34.312Z,18.72
2019-03-23T01:51:05.051Z,18.47
2019-03-23T01:53:36.178Z,18.51
2019-03-23T01:56:10.920Z,18.69
2019-03-23T01:58:41.929Z,18.46
2019-03-23T02:01:14.901Z,18.32
2019-03-23T02:03:46.392Z,18.55
2019-03-23T02:06:18.491Z,18.35
2019-03-23T02:08:51.017Z,18.41
2019-03-23T02:11:23.676Z,18.38
2019-03-23T02:13:54.415Z,18.12
2019-03-23T02:16:26.292Z,17.88
2019-03-23T02:18:57.750Z,17.22
2019-03-23T02:21:29.015Z,17.29
2019-03-23T02:24:01.437Z,17.02
2019-03-23T02:26:35.369Z,16.77
2019-03-23T02:29:06.749Z,16.82
2019-03-23T02:31:38.162Z,16.71
2019-03-23T02:34:10.133Z,16.53
2019-03-23T02:36:44.910Z,16.36
2019-03-23T02:39:15.651Z,16.64
2019-03-23T02:41:47.694Z,16.38
2019-03-23T02:44:18.720Z,16.44
2019-03-23T02:46:50.927Z,16.56
2019-03-23T02:49:23.473Z,16.27
2019-03-23T02:51:55.299Z,16.17
2019-03-23T02:54:28.338Z,16.06
2019-03-23T02:57:03.508Z,16.21
2019-03-23T02:59:34.726Z,16.25
2019-03-23T03:02:07.352Z,16.41
2019-03-23T03:04:43.040Z,15.58
2019-03-23T03:07:14.967Z,15.78
2019-03-23T03:09:47.481Z,15.55
2019-03-23T03:12:20.097Z,15.50
2019-03-23T03:14:51.600Z,15.02
2019-03-23T03:17:22.435Z,14.90
2019-03-23T03:19:53.971Z,14.83
2019-03-23T03:22:25.722Z,14.52
2019-03-23T03:24:57.288Z,14.49
2019-03-23T03:27:29.121Z,14.15
2019-03-23T03:30:00.713Z,14.53
2019-03-23T03:32:31.784Z,14.72
2019-03-23T03:35:06.211Z,14.09
2019-03-23T03:37:38.849Z,14.42
2019-03-23T03:40:11.710Z,14.70
2019-03-23T03:42:44.251Z,14.47
2019-03-23T03:45:23.716Z,14.11
2019-03-23T03:47:57.145Z,14.72
2019-03-23T03:50:29.847Z,14.85
2019-03-23T03:53:00.909Z,13.66
2019-03-23T03:55:32.061Z,14.41
2019-03-23T03:58:06.819Z,14.32
2019-03-23T04:00:39.123Z,14.74
2019-03-23T04:03:10.677Z,15.03
2019-03-23T04:05:42.333Z,15.14
2019-03-23T04:08:14.473Z,14.59
2019-03-23T04:10:48.049Z,14.57
2019-03-23T04:13:20.855Z,14.68
2019-03-23T04:15:52.755Z,14.70
2019-03-23T04:18:25.435Z,14.71
2019-03-23T04:20:58.796Z,14.63
2019-03-23T04:23:30.462Z,14.56
2019-03-23T04:26:01.723Z,14.82
2019-03-23T04:28:32.961Z,15.00
2019-03-23T04:31:04.644Z,14.85
2019-03-23T04:33:35.942Z,15.00
2019-03-23T04:36:07.172Z,15.25
2019-03-23T04:38:39.455Z,15.20
2019-03-23T04:41:12.850Z,15.43
2019-03-23T04:43:50.886Z,14.64
2019-03-23T04:46:22.355Z,15.03
2019-03-23T04:48:54.381Z,15.03
2019-03-23T04:51:25.119Z,14.84
2019-03-23T04:53:56.766Z,15.27
2019-03-23T04:56:28.296Z,15.17
2019-03-23T04:59:01.956Z,15.40
2019-03-23T05:01:33.642Z,15.71
2019-03-23T05:04:05.572Z,15.75
2019-03-23T05:06:36.700Z,15.87
2019-03-23T05:09:09.837Z,15.73
2019-03-23T05:11:41.969Z,15.84
2019-03-23T05:14:16.264Z,16.05
2019-03-23T05:16:47.834Z,16.09
2019-03-23T05:19:18.613Z,15.98
2019-03-23T05:21:49.730Z,16.18
2019-03-23T05:24:20.960Z,16.00
2019-03-23T05:26:52.540Z,15.88
2019-03-23T05:29:24.920Z,15.81
2019-03-23T05:31:55.697Z,15.79
2019-03-23T05:34:27.126Z,15.91
2019-03-23T05:36:59.185Z,16.08
2019-03-23T05:39:30.440Z,16.14
2019-03-23T05:42:01.931Z,16.08
2019-03-23T05:44:34.235Z,15.93
2019-03-23T05:47:05.416Z,15.88
2019-03-23T05:49:36.659Z,16.18
2019-03-23T05:52:07.797Z,16.03
2019-03-23T05:54:38.898Z,16.22
2019-03-23T05:57:10.066Z,15.98
2019-03-23T05:59:44.788Z,16.12
2019-03-23T06:02:15.555Z,15.99
2019-03-23T06:04:46.844Z,16.21
2019-03-23T06:07:18.774Z,16.31
2019-03-23T06:09:50.949Z,15.61
2019-03-23T06:12:21.849Z,15.80
2019-03-23T06:14:55.239Z,15.80
2019-03-23T06:17:26.408Z,15.58
2019-03-23T06:19:59.187Z,15.66
2019-03-23T06:22:31.037Z,15.87
2019-03-23T06:25:02.902Z,16.11
2019-03-23T06:27:37.810Z,16.25
2019-03-23T06:30:12.926Z,16.33
2019-03-23T06:32:46.972Z,16.20
2019-03-23T06:35:20.069Z,16.35
2019-03-23T06:37:51.324Z,16.38
2019-03-23T06:40:22.808Z,16.55
2019-03-23T06:42:59.618Z,16.67
2019-03-23T06:45:29.901Z,16.71
2019-03-23T06:48:03.364Z,16.41
2019-03-23T06:50:34.474Z,16.53
2019-03-23T06:53:06.494Z,16.42
2019-03-23T06:55:38.668Z,16.21
2019-03-23T07:01:31.711Z,16.30
2019-03-23T07:04:03.393Z,15.79
2019-03-23T07:06:34.222Z,15.90
2019-03-23T07:09:15.831Z,15.96
2019-03-23T07:11:40.938Z,16.01
2019-03-23T07:14:14.704Z,16.21
2019-03-23T07:16:47.034Z,16.28
2019-03-23T07:19:18.105Z,16.50
2019-03-23T07:21:49.281Z,16.33
2019-03-23T07:24:28.830Z,16.26
2019-03-23T07:26:59.975Z,16.19
2019-03-23T07:29:30.716Z,16.32
2019-03-23T07:32:05.920Z,16.33
2019-03-23T07:34:35.142Z,16.33
2019-03-23T07:37:08.738Z,16.40
2019-03-23T07:39:39.996Z,16.55
2019-03-23T07:42:12.193Z,16.38
2019-03-23T07:44:45.401Z,16.55
2019-03-23T07:47:19.495Z,16.52
2019-03-23T07:49:50.663Z,16.29
2019-03-23T07:52:21.544Z,16.31
2019-03-23T07:54:54.551Z,16.60
2019-03-23T07:57:28.096Z,16.48
2019-03-23T08:00:01.187Z,16.41
2019-03-23T08:02:35.172Z,16.37
2019-03-23T08:05:07.948Z,16.19
2019-03-23T08:07:39.272Z,16.20
2019-03-23T08:10:10.091Z,16.05
2019-03-23T08:12:41.710Z,16.08
2019-03-23T08:15:15.221Z,15.97
2019-03-23T08:17:49.013Z,15.54
2019-03-23T08:20:22.027Z,15.91
2019-03-23T08:22:53.663Z,16.09
2019-03-23T08:25:25.539Z,16.19
2019-03-23T08:27:56.835Z,16.20
2019-03-23T08:30:27.935Z,16.45
2019-03-23T08:33:00.481Z,16.59
2019-03-23T08:35:33.377Z,16.62
2019-03-23T08:38:05.129Z,16.60
2019-03-23T08:40:36.034Z,16.52
2019-03-23T08:43:11.961Z,16.44
2019-03-23T08:45:44.265Z,16.76
2019-03-23T08:48:15.550Z,16.75
2019-03-23T08:50:47.173Z,16.73
2019-03-23T08:53:18.297Z,17.03
2019-03-23T08:55:49.993Z,17.05
2019-03-23T08:58:29.266Z,17.18
2019-03-23T09:01:01.688Z,17.40
2019-03-23T09:03:34.807Z,17.61
2019-03-23T09:06:08.782Z,17.66
2019-03-23T09:08:40.547Z,17.78
2019-03-23T09:11:20.216Z,17.88
2019-03-23T09:13:47.808Z,17.95
2019-03-23T09:16:20.294Z,17.92
2019-03-23T09:18:52.134Z,17.97
2019-03-23T09:21:24.981Z,17.15
2019-03-23T09:23:55.871Z,16.96
2019-03-23T09:26:27.477Z,17.52
2019-03-23T09:28:58.721Z,17.81
2019-03-23T09:31:29.458Z,17.44
2019-03-23T09:34:01.977Z,17.57
2019-03-23T09:36:33.958Z,17.60
2019-03-23T09:39:09.983Z,17.89
2019-03-23T09:41:42.195Z,17.89
2019-03-23T09:44:13.282Z,17.91
2019-03-23T09:46:44.446Z,18.08
2019-03-23T09:49:17.182Z,18.21
2019-03-23T09:51:48.588Z,18.41
2019-03-23T09:54:19.835Z,18.38
2019-03-23T09:56:52.460Z,18.21
2019-03-23T09:59:25.490Z,17.54
2019-03-23T10:01:58.453Z,18.08
2019-03-23T10:04:32.000Z,17.15
2019-03-23T10:07:04.542Z,16.87
2019-03-23T10:09:36.463Z,17.66
2019-03-23T10:12:07.543Z,17.63
2019-03-23T10:14:40.791Z,17.73
2019-03-23T10:17:11.923Z,17.79
2019-03-23T10:19:45.506Z,18.18
2019-03-23T10:22:17.083Z,18.05
2019-03-23T10:24:51.851Z,18.23
2019-03-23T10:27:38.199Z,18.07
2019-03-23T10:30:11.765Z,18.47
2019-03-23T10:32:42.572Z,18.23
2019-03-23T10:35:15.272Z,17.65
2019-03-23T10:37:47.005Z,18.36
2019-03-23T10:40:19.105Z,18.61
2019-03-23T10:42:52.896Z,18.32
2019-03-23T10:45:25.254Z,18.71
2019-03-23T10:50:29.267Z,18.87
2019-03-23T10:53:00.396Z,18.97
2019-03-23T10:55:32.222Z,18.78
2019-03-23T10:58:04.215Z,18.47
2019-03-23T11:00:40.779Z,18.13
2019-03-23T11:03:11.918Z,18.50
2019-03-23T11:05:45.253Z,18.74
2019-03-23T11:08:16.486Z,18.73
2019-03-23T11:10:48.343Z,18.93
2019-03-23T11:13:19.499Z,18.72
2019-03-23T11:15:50.675Z,18.82
2019-03-23T11:18:25.547Z,18.72
2019-03-23T11:21:00.151Z,18.37
2019-03-23T11:23:32.552Z,18.44
2019-03-23T11:26:03.449Z,18.53
2019-03-23T11:28:34.716Z,18.79
2019-03-23T11:31:06.273Z,18.25
2019-03-23T11:33:38.003Z,18.57
2019-03-23T11:36:10.920Z,18.64
2019-03-23T11:38:42.403Z,18.83
2019-03-23T11:41:13.264Z,18.86
2019-03-23T11:43:44.006Z,18.91
2019-03-23T11:46:16.939Z,18.88
2019-03-23T11:48:48.034Z,18.79
2019-03-23T11:51:20.079Z,18.58
2019-03-23T11:53:51.108Z,18.61
2019-03-23T11:56:21.948Z,18.49
2019-03-23T11:58:54.316Z,18.68
2019-03-23T12:01:25.911Z,18.90
2019-03-23T12:03:57.015Z,18.35
2019-03-23T12:06:30.956Z,18.69
2019-03-23T12:09:05.966Z,18.74
2019-03-23T12:11:37.982Z,18.87
2019-03-23T12:14:09.072Z,19.16
2019-03-23T12:16:41.138Z,18.66
2019-03-23T12:19:12.713Z,18.88
2019-03-23T12:21:44.819Z,18.99
2019-03-23T12:24:15.529Z,18.84
2019-03-23T12:26:46.742Z,19.04
2019-03-23T12:29:21.433Z,19.29
2019-03-23T12:31:52.643Z,19.25
2019-03-23T12:34:25.265Z,19.44
2019-03-23T12:36:59.853Z,19.98
2019-03-23T12:39:32.222Z,20.64
2019-03-23T12:42:05.891Z,21.21
2019-03-23T12:44:41.885Z,21.82
2019-03-23T12:47:12.921Z,21.85
2019-03-23T12:49:47.878Z,21.62
2019-03-23T12:52:21.338Z,21.69
2019-03-23T12:54:53.306Z,21.68
2019-03-23T12:57:26.523Z,21.46
2019-03-23T12:59:57.764Z,21.44
2019-03-23T13:02:28.616Z,21.48
2019-03-23T13:04:59.795Z,20.65
2019-03-23T13:07:34.549Z,20.62
2019-03-23T13:10:07.200Z,20.77
2019-03-23T13:12:38.774Z,20.60
2019-03-23T13:15:12.124Z,20.76
2019-03-23T13:17:43.479Z,20.75
2019-03-23T13:20:15.578Z,20.85
2019-03-23T13:22:52.336Z,21.04
2019-03-23T13:25:24.798Z,21.67
2019-03-23T13:27:56.298Z,22.53
2019-03-23T13:30:28.776Z,21.93
2019-03-23T13:32:59.587Z,21.89
2019-03-23T13:35:30.677Z,22.04
2019-03-23T13:38:03.955Z,21.71
2019-03-23T13:40:35.840Z,21.76
2019-03-23T13:43:06.671Z,21.96
2019-03-23T13:45:42.667Z,21.77
2019-03-23T13:48:12.657Z,21.81
2019-03-23T13:50:44.649Z,21.56
2019-03-23T13:53:17.697Z,21.80
2019-03-23T13:55:48.855Z,21.82
2019-03-23T13:58:22.789Z,21.84
2019-03-23T14:00:55.416Z,21.38
2019-03-23T14:03:29.169Z,21.66
2019-03-23T14:06:02.027Z,21.38
2019-03-23T14:08:36.276Z,21.39
2019-03-23T14:11:08.398Z,21.70
2019-03-23T14:13:41.413Z,21.68
2019-03-23T14:16:12.711Z,21.83
2019-03-23T14:18:45.729Z,21.07
2019-03-23T14:21:17.605Z,21.48
2019-03-23T14:23:51.019Z,21.83
2019-03-23T14:26:25.297Z,22.80
2019-03-23T14:28:59.271Z,23.43
2019-03-23T14:31:31.726Z,23.46
2019-03-23T14:34:03.522Z,23.05
2019-03-23T14:36:35.024Z,23.70
2019-03-23T14:39:08.359Z,23.78
2019-03-23T14:41:40.372Z,23.98
2019-03-23T14:44:13.394Z,23.85
2019-03-23T14:46:44.398Z,23.75
2019-03-23T14:49:15.253Z,23.80
2019-03-23T14:51:47.258Z,24.31
2019-03-23T14:54:22.040Z,23.90
2019-03-23T14:56:53.416Z,23.47
2019-03-23T14:59:24.888Z,23.31
2019-03-23T15:01:56.813Z,23.55
2019-03-23T15:04:28.986Z,23.32
2019-03-23T15:06:59.718Z,23.43
2019-03-23T15:09:33.899Z,23.16
2019-03-23T15:12:14.725Z,22.89
2019-03-23T15:14:40.258Z,22.63
2019-03-23T15:17:11.064Z,22.53
2019-03-23T15:19:42.996Z,22.25
2019-03-23T15:22:15.224Z,22.19
2019-03-23T15:24:47.892Z,22.10
2019-03-23T15:27:19.391Z,21.87
2019-03-23T15:29:50.907Z,21.84
2019-03-23T15:32:23.222Z,21.63
2019-03-23T15:34:53.972Z,21.49
2019-03-23T15:37:24.735Z,21.40
2019-03-23T15:39:56.090Z,21.22
2019-03-23T15:42:27.279Z,20.95
2019-03-23T15:44:58.350Z,20.76
2019-03-23T15:47:29.657Z,20.92
2019-03-23T15:50:01.972Z,20.72
2019-03-23T15:52:33.447Z,20.70
2019-03-23T15:55:05.218Z,20.42
2019-03-23T15:57:36.063Z,20.03
2019-03-23T16:00:12.054Z,20.10
2019-03-23T16:02:43.487Z,20.00
2019-03-23T16:05:14.799Z,20.06
2019-03-23T16:07:46.191Z,19.75
2019-03-23T16:10:20.139Z,20.15
2019-03-23T16:12:51.804Z,20.20
2019-03-23T16:15:23.719Z,20.25
2019-03-23T16:17:56.537Z,20.16
2019-03-23T16:20:28.371Z,20.10
2019-03-23T16:23:00.499Z,20.03
2019-03-23T16:25:33.811Z,19.73
2019-03-23T16:28:06.555Z,19.94
2019-03-23T16:30:38.303Z,19.91
2019-03-23T16:33:10.035Z,20.01
2019-03-23T16:35:41.605Z,19.70
2019-03-23T16:38:12.307Z,19.84
2019-03-23T16:40:45.582Z,19.82
2019-03-23T16:43:17.336Z,19.59
2019-03-23T16:45:48.380Z,19.79
2019-03-23T16:48:21.998Z,19.93
2019-03-23T16:50:52.811Z,19.69
2019-03-23T16:53:24.011Z,19.95
2019-03-23T16:55:56.146Z,19.90
2019-03-23T16:58:27.347Z,19.67
2019-03-23T17:01:01.221Z,19.23
2019-03-23T17:03:33.314Z,19.73
2019-03-23T17:06:07.740Z,19.81
2019-03-23T17:08:39.887Z,19.75
2019-03-23T17:11:13.127Z,19.82
2019-03-23T17:13:44.804Z,19.80
2019-03-23T17:16:18.295Z,19.79
2019-03-23T17:18:49.869Z,19.46
2019-03-23T17:21:21.133Z,19.65
2019-03-23T17:23:52.673Z,19.69
2019-03-23T17:26:25.478Z,19.72
2019-03-23T17:28:59.086Z,19.62
2019-03-23T17:31:32.735Z,19.62
2019-03-23T17:34:07.341Z,19.55
2019-03-23T17:36:38.282Z,19.59
2019-03-23T17:39:09.803Z,19.56
2019-03-23T17:41:42.518Z,19.73
2019-03-23T17:44:13.739Z,19.82
2019-03-23T17:46:46.978Z,19.48
2019-03-23T17:49:20.428Z,19.39
2019-03-23T17:51:51.271Z,19.58
2019-03-23T17:54:23.515Z,19.72
2019-03-23T17:56:56.838Z,19.51
2019-03-23T17:59:27.942Z,19.47
2019-03-23T18:02:01.852Z,19.48
2019-03-23T18:04:33.934Z,19.13
2019-03-23T18:07:05.643Z,19.15
2019-03-23T18:09:36.351Z,18.89
2019-03-23T18:12:08.972Z,19.13
2019-03-23T18:14:40.837Z,19.06
2019-03-23T18:17:11.427Z,18.93
2019-03-23T18:19:42.955Z,19.17
2019-03-23T18:22:14.098Z,19.03
2019-03-23T18:24:45.657Z,19.23
2019-03-23T18:27:18.893Z,19.34
2019-03-23T18:29:49.621Z,19.26
2019-03-23T18:32:20.782Z,19.12
2019-03-23T18:34:52.585Z,19.37
2019-03-23T18:37:24.101Z,19.43
2019-03-23T18:39:55.580Z,19.52
2019-03-23T18:42:27.875Z,19.47
2019-03-23T18:44:59.141Z,19.40
2019-03-23T18:47:30.307Z,19.61
2019-03-23T18:50:01.817Z,19.51
2019-03-23T18:52:33.272Z,19.61
2019-03-23T18:55:06.855Z,19.72
2019-03-23T18:57:39.537Z,19.80
2019-03-23T19:00:11.877Z,19.78
2019-03-23T19:02:42.875Z,19.81
2019-03-23T19:05:14.859Z,19.73
2019-03-23T19:07:46.752Z,19.51
2019-03-23T19:10:18.048Z,19.64
2019-03-23T19:12:51.704Z,19.52
2019-03-23T19:15:23.010Z,19.60
2019-03-23T19:17:53.821Z,19.30
2019-03-23T19:20:24.770Z,19.12
2019-03-23T19:22:55.520Z,18.78
2019-03-23T19:25:27.869Z,18.90
2019-03-23T19:28:00.346Z,18.57
2019-03-23T19:30:35.689Z,18.98
2019-03-23T19:33:06.615Z,18.91
2019-03-23T19:35:37.865Z,18.96
2019-03-23T19:38:09.824Z,19.08
2019-03-23T19:40:40.646Z,19.28
2019-03-23T19:43:12.688Z,19.25
2019-03-23T19:45:44.750Z,19.35
2019-03-23T19:48:15.887Z,19.33
2019-03-23T19:50:48.488Z,19.35
2019-03-23T19:53:20.645Z,19.47
2019-03-23T19:55:53.209Z,19.52
2019-03-23T19:58:25.046Z,19.53
2019-03-23T20:00:57.485Z,19.34
2019-03-23T20:03:31.063Z,19.16
2019-03-23T20:06:04.027Z,18.49
2019-03-23T20:08:37.582Z,18.96
2019-03-23T20:11:08.919Z,18.97
2019-03-23T20:13:44.559Z,18.99
2019-03-23T20:16:17.543Z,19.23
2019-03-23T20:18:48.754Z,19.28
2019-03-23T20:21:20.014Z,19.16
2019-03-23T20:23:53.228Z,19.12
2019-03-23T20:26:25.161Z,19.16
2019-03-23T20:28:59.371Z,19.05
2019-03-23T20:31:33.817Z,19.13
2019-03-23T20:34:04.857Z,19.02
2019-03-23T20:36:39.018Z,18.77
2019-03-23T20:39:13.590Z,19.00
2019-03-23T20:41:48.235Z,18.85
2019-03-23T20:44:20.386Z,19.00
2019-03-23T20:46:53.527Z,18.14
2019-03-23T20:49:24.845Z,18.59
2019-03-23T20:51:58.433Z,18.13
2019-03-23T20:54:30.028Z,18.63
2019-03-23T20:57:03.239Z,18.83
2019-03-23T20:59:36.165Z,18.58
2019-03-23T21:02:10.700Z,18.57
2019-03-23T21:04:43.476Z,18.86
2019-03-23T21:07:14.793Z,19.00
2019-03-23T21:09:46.060Z,18.70
2019-03-23T21:12:16.762Z,18.79
2019-03-23T21:14:49.004Z,19.03
2019-03-23T21:17:20.213Z,19.09
2019-03-23T21:19:51.367Z,18.81
2019-03-23T21:22:22.074Z,18.84
2019-03-23T21:24:52.838Z,19.04
2019-03-23T21:27:26.370Z,19.03
2019-03-23T21:30:00.037Z,19.22
2019-03-23T21:32:32.453Z,19.17
2019-03-23T21:35:05.708Z,19.32
2019-03-23T21:37:39.378Z,19.16
2019-03-23T21:40:11.217Z,19.15
2019-03-23T21:42:42.332Z,19.13
2019-03-23T21:45:17.278Z,19.19
2019-03-23T21:47:51.429Z,19.12
2019-03-23T21:50:22.616Z,19.19
2019-03-23T21:52:55.787Z,19.21
2019-03-23T21:55:29.642Z,19.27
2019-03-23T21:58:01.687Z,19.03
2019-03-23T22:00:36.735Z,19.25
2019-03-23T22:03:08.718Z,19.34
2019-03-23T22:05:40.908Z,19.10
2019-03-23T22:08:12.808Z,19.26
2019-03-23T22:10:44.734Z,19.26
2019-03-23T22:13:16.885Z,19.32
2019-03-23T22:15:50.575Z,19.14
2019-03-23T22:18:22.172Z,19.12
2019-03-23T22:20:55.685Z,19.05
2019-03-23T22:23:26.773Z,19.12
2019-03-23T22:26:00.743Z,19.03
2019-03-23T22:28:32.837Z,19.09
2019-03-23T22:31:05.316Z,18.98
2019-03-23T22:33:36.620Z,18.88
2019-03-23T22:36:07.930Z,19.08
2019-03-23T22:38:40.462Z,19.12
2019-03-23T22:41:12.009Z,19.17
2019-03-23T22:43:42.973Z,19.10
2019-03-23T22:46:15.074Z,19.03
2019-03-23T22:48:48.200Z,19.11
2019-03-23T22:51:20.125Z,18.99
2019-03-23T22:54:01.182Z,18.96
2019-03-23T22:56:32.426Z,18.77
2019-03-23T22:59:03.641Z,18.65
2019-03-23T23:01:36.174Z,18.81
2019-03-23T23:04:07.327Z,18.91
2019-03-23T23:06:40.383Z,18.89
2019-03-23T23:09:13.664Z,18.90
2019-03-23T23:11:45.134Z,18.97
2019-03-23T23:14:17.956Z,19.03
2019-03-23T23:16:54.223Z,18.92
2019-03-23T23:19:28.162Z,18.70
2019-03-23T23:21:59.678Z,18.73
2019-03-23T23:24:31.080Z,18.64
2019-03-23T23:27:01.832Z,18.83
2019-03-23T23:29:33.931Z,18.88
2019-03-23T23:32:06.582Z,18.79
2019-03-23T23:34:37.360Z,18.68
2019-03-23T23:37:08.176Z,18.64
2019-03-23T23:39:41.587Z,18.78
2019-03-23T23:42:12.389Z,18.36
2019-03-23T23:44:44.179Z,18.60
2019-03-23T23:47:15.160Z,18.66
2019-03-23T23:49:49.714Z,18.58
2019-03-23T23:52:22.261Z,18.70
2019-03-23T23:54:53.373Z,18.59
2019-03-23T23:57:24.965Z,18.68
2019-03-23T23:59:56.689Z,18.74
